Time;durP1;ratioP1;P1;durP2;ratioP2;P2;SDS_P1;SDS_P2;PMS_P1;PMS_P2;Temp;Humidity;BMP_temperature;BMP_pressure;BME280_temperature;BME280_humidity;BME280_pressure;Samples;Min_cycle;Max_cycle;Signal;HPM_P1;HPM_P2
2021/06/09 00:01:00;;;;;;;15.15;13.63;;;;;;;13.05;73.42;96333.13;3574269;40;20056;-56
2021/06/09 00:03:29;;;;;;;18.75;16.75;;;;;;;13.05;73.86;96341.06;3585113;39;20052;-56
2021/06/09 00:05:58;;;;;;;18.17;16.58;;;;;;;12.96;73.69;96345.28;3584162;39;20058;-55
2021/06/09 00:08:26;;;;;;;16.55;14.82;;;;;;;12.90;73.81;96347.91;3585433;39;20063;-55
2021/06/09 00:10:57;;;;;;;16.52;14.93;;;;;;;12.90;74.25;96341.81;3584874;39;20063;-55
2021/06/09 00:13:28;;;;;;;17.83;16.05;;;;;;;12.86;74.73;96349.47;3567218;39;20136;-55
2021/06/09 00:15:58;;;;;;;16.92;15.30;;;;;;;12.79;74.01;96348.91;3586463;39;21147;-55
2021/06/09 00:18:26;;;;;;;17.38;15.60;;;;;;;12.76;73.90;96346.78;3586034;39;20086;-55
2021/06/09 00:20:53;;;;;;;16.30;14.80;;;;;;;12.73;74.22;96337.50;3575803;40;20538;-56
2021/06/09 00:23:26;;;;;;;18.42;16.00;;;;;;;12.75;75.14;96338.06;3566845;40;20052;-55
2021/06/09 00:25:55;;;;;;;21.52;14.73;;;;;;;12.72;75.24;96333.28;3574993;40;20062;-56
2021/06/09 00:28:23;;;;;;;17.83;16.02;;;;;;;12.69;75.39;96333.00;3585922;39;20063;-56
2021/06/09 00:30:51;;;;;;;18.60;15.85;;;;;;;12.64;75.29;96333.78;3574825;39;20043;-55
2021/06/09 00:33:19;;;;;;;17.50;15.40;;;;;;;12.56;75.02;96335.06;3575414;40;22032;-56
2021/06/09 00:35:47;;;;;;;18.77;16.25;;;;;;;12.50;75.67;96327.34;3586627;39;20059;-56
2021/06/09 00:38:15;;;;;;;16.67;14.93;;;;;;;12.45;75.74;96331.56;3570794;40;20048;-56
2021/06/09 00:40:45;;;;;;;15.80;14.30;;;;;;;12.41;75.97;96330.50;3582303;39;20040;-58
2021/06/09 00:43:19;;;;;;;16.75;15.15;;;;;;;12.38;75.54;96338.94;3582897;40;20036;-59
2021/06/09 00:46:01;;;;;;;16.90;14.95;;;;;;;12.30;75.51;96334.94;3587603;40;20060;-56
2021/06/09 00:48:30;;;;;;;19.60;15.60;;;;;;;12.33;76.53;96343.41;3579024;40;20066;-56
2021/06/09 00:51:01;;;;;;;16.15;14.63;;;;;;;12.30;75.98;96340.22;3570148;40;20060;-56
2021/06/09 00:53:35;;;;;;;17.77;15.90;;;;;;;12.29;75.62;96335.97;3584398;39;20039;-56
2021/06/09 00:56:12;;;;;;;17.00;15.05;;;;;;;12.28;75.81;96344.19;3576276;39;20676;-56
2021/06/09 00:58:43;;;;;;;17.33;15.80;;;;;;;12.20;75.89;96334.88;3572739;39;20047;-56
2021/06/09 01:01:12;;;;;;;17.88;16.00;;;;;;;12.11;75.71;96336.41;3568138;40;20064;-55
2021/06/09 01:03:41;;;;;;;16.00;14.50;;;;;;;12.03;76.16;96335.03;3586981;39;20083;-55
2021/06/09 01:06:09;;;;;;;17.33;15.43;;;;;;;12.01;75.94;96337.13;3579699;40;20046;-55
2021/06/09 01:08:38;;;;;;;17.73;15.93;;;;;;;12.03;75.83;96335.03;3589019;40;20058;-60
2021/06/09 01:11:10;;;;;;;17.02;15.35;;;;;;;11.97;76.57;96330.72;3580036;40;20285;-55
2021/06/09 01:13:38;;;;;;;16.85;15.23;;;;;;;11.92;76.56;96326.19;3574555;40;20056;-56
2021/06/09 01:16:06;;;;;;;17.38;15.68;;;;;;;11.92;75.87;96323.53;3588077;39;20082;-56
2021/06/09 01:18:35;;;;;;;16.35;14.82;;;;;;;11.83;76.41;96330.38;3579506;40;20308;-56
2021/06/09 01:21:04;;;;;;;17.13;15.25;;;;;;;11.79;76.04;96335.38;3586827;39;20055;-56
2021/06/09 01:23:34;;;;;;;16.00;14.50;;;;;;;11.75;76.47;96338.78;3571618;40;20054;-56
2021/06/09 01:26:04;;;;;;;17.83;16.02;;;;;;;11.74;76.53;96322.09;3579733;40;20052;-56
2021/06/09 01:28:33;;;;;;;21.00;16.85;;;;;;;11.65;76.50;96342.13;3573902;39;20036;-55
2021/06/09 01:31:02;;;;;;;16.55;15.20;;;;;;;11.58;77.07;96339.69;3588325;39;20040;-56
2021/06/09 01:33:31;;;;;;;18.40;16.45;;;;;;;11.52;76.72;96335.38;3575291;40;20308;-55
2021/06/09 01:35:59;;;;;;;18.65;16.20;;;;;;;11.57;76.15;96332.00;3585444;39;20052;-58
2021/06/09 01:38:27;;;;;;;18.40;16.60;;;;;;;11.57;76.01;96335.44;3581618;39;20678;-55
2021/06/09 01:40:54;;;;;;;17.48;15.68;;;;;;;11.55;76.17;96337.53;3572140;39;20052;-55
2021/06/09 01:43:23;;;;;;;17.08;15.35;;;;;;;11.54;75.91;96335.94;3576913;39;20063;-55
2021/06/09 01:45:51;;;;;;;16.80;15.13;;;;;;;11.48;75.53;96332.44;3578590;40;20094;-55
2021/06/09 01:48:18;;;;;;;16.67;14.93;;;;;;;11.48;75.94;96321.88;3568039;40;20066;-55
2021/06/09 01:50:46;;;;;;;17.05;15.23;;;;;;;11.44;76.35;96330.56;3576421;40;20426;-56
2021/06/09 01:53:14;;;;;;;18.15;16.30;;;;;;;11.41;76.72;96331.06;3576727;39;20040;-56
2021/06/09 01:55:42;;;;;;;17.08;15.32;;;;;;;11.31;77.23;96329.94;3586043;39;20372;-56
2021/06/09 01:58:12;;;;;;;20.15;15.50;;;;;;;11.27;77.44;96334.09;3576388;40;20064;-56
2021/06/09 02:00:45;;;;;;;18.77;16.33;;;;;;;11.19;77.05;96324.00;3574733;40;20052;-57
2021/06/09 02:03:15;;;;;;;19.10;16.67;;;;;;;11.18;77.20;96327.69;3566048;39;20420;-56
2021/06/09 02:05:44;;;;;;;18.05;16.25;;;;;;;11.14;76.95;96331.88;3576652;40;20286;-55
2021/06/09 02:08:13;;;;;;;21.80;19.48;;;;;;;11.03;78.18;96329.13;3576204;39;20062;-55
2021/06/09 02:10:43;;;;;;;20.55;18.48;;;;;;;10.95;78.29;96337.47;3573243;39;20085;-56
2021/06/09 02:13:18;;;;;;;20.90;18.02;;;;;;;10.86;78.73;96336.34;3583963;39;20053;-56
2021/06/09 02:15:46;;;;;;;19.88;16.90;;;;;;;10.84;78.93;96341.06;3575861;39;20047;-55
2021/06/09 02:18:17;;;;;;;18.80;16.80;;;;;;;10.81;78.60;96334.44;3585778;39;20566;-55
2021/06/09 02:20:51;;;;;;;23.15;17.67;;;;;;;10.83;78.68;96340.25;3585923;39;20412;-55
2021/06/09 02:23:23;;;;;;;21.17;17.55;;;;;;;10.79;78.83;96340.97;3586729;39;20082;-55
2021/06/09 02:25:56;;;;;;;20.20;17.65;;;;;;;10.76;79.13;96347.56;3576875;40;20058;-55
2021/06/09 02:28:34;;;;;;;19.63;16.48;;;;;;;10.76;78.83;96334.38;3586145;40;20297;-55
2021/06/09 02:31:02;;;;;;;20.55;18.58;;;;;;;10.74;78.69;96339.91;3585615;39;20066;-55
2021/06/09 02:33:30;;;;;;;18.95;17.13;;;;;;;10.68;78.68;96338.22;3586341;39;21956;-57
2021/06/09 02:35:58;;;;;;;21.80;19.55;;;;;;;10.66;79.08;96344.81;3584131;39;20055;-54
2021/06/09 02:38:26;;;;;;;18.55;16.45;;;;;;;10.66;78.84;96344.81;3582248;39;20301;-55
2021/06/09 02:40:57;;;;;;;22.35;17.70;;;;;;;10.68;79.30;96348.78;3567391;40;20136;-55
2021/06/09 02:43:31;;;;;;;17.75;15.98;;;;;;;10.65;79.35;96351.13;3585114;39;20056;-54
2021/06/09 02:46:03;;;;;;;20.90;17.77;;;;;;;10.67;79.58;96349.03;3573965;40;20046;-55
2021/06/09 02:48:31;;;;;;;19.23;16.55;;;;;;;10.66;79.75;96350.88;3567182;40;20040;-56
2021/06/09 02:51:01;;;;;;;18.50;16.67;;;;;;;10.65;79.66;96348.47;3574742;40;20066;-55
2021/06/09 02:53:34;;;;;;;19.63;17.67;;;;;;;10.63;79.38;96340.00;3585591;39;20041;-55
2021/06/09 02:56:23;;;;;;;20.08;17.88;;;;;;;10.61;79.29;96343.69;3570806;40;20047;-55
2021/06/09 02:59:13;;;;;;;18.73;16.80;;;;;;;10.63;79.15;96340.00;3573306;39;20054;-55
2021/06/09 03:02:35;;;;;;;20.98;17.83;;;;;;;10.58;79.70;96343.38;3574028;40;20051;-55
2021/06/09 03:05:16;;;;;;;19.35;17.25;;;;;;;10.60;79.65;96349.22;3532739;40;20550;-57
2021/06/09 03:07:46;;;;;;;19.20;16.83;;;;;;;10.56;79.63;96341.00;3584719;39;20058;-55
2021/06/09 03:10:36;;;;;;;18.48;15.15;;;;;;;10.58;79.95;96348.66;3586310;39;20048;-56
2021/06/09 03:13:25;;;;;;;19.48;16.67;;;;;;;10.61;79.43;96348.19;3575688;39;20047;-55
2021/06/09 03:16:03;;;;;;;20.38;17.60;;;;;;;10.66;79.62;96342.16;3586371;39;20059;-55
2021/06/09 03:18:45;;;;;;;17.80;15.98;;;;;;;10.72;79.48;96349.09;3580026;39;20050;-55
2021/06/09 03:21:18;;;;;;;20.90;16.92;;;;;;;10.70;79.87;96349.34;3577019;40;20052;-55
2021/06/09 03:24:12;;;;;;;18.52;16.40;;;;;;;10.68;79.96;96340.09;3574854;39;20046;-55
2021/06/09 03:26:48;;;;;;;18.30;16.48;;;;;;;10.75;79.28;96343.31;3576618;40;20063;-57
2021/06/09 03:29:45;;;;;;;20.60;18.55;;;;;;;10.76;79.84;96340.47;3568167;40;20316;-55
2021/06/09 03:32:26;;;;;;;22.20;18.40;;;;;;;11.44;78.20;96349.06;3586510;39;20062;-55
2021/06/09 03:35:06;;;;;;;17.00;15.32;;;;;;;12.77;74.37;96353.66;3571064;40;20492;-55
2021/06/09 03:37:41;;;;;;;17.00;15.30;;;;;;;13.87;70.64;96345.69;3584810;39;20095;-55
2021/06/09 03:40:15;;;;;;;16.80;15.10;;;;;;;14.65;68.06;96342.88;3567414;39;21102;-55
2021/06/09 03:42:47;;;;;;;16.17;12.23;;;;;;;15.50;66.11;96343.81;3585680;39;20040;-55
2021/06/09 03:45:15;;;;;;;16.02;14.52;;;;;;;16.44;63.09;96344.63;3574971;39;20060;-55
2021/06/09 03:47:44;;;;;;;15.80;14.27;;;;;;;16.95;61.43;96342.47;3584111;39;20056;-56
2021/06/09 03:50:16;;;;;;;16.15;12.52;;;;;;;17.64;56.54;96342.84;3578422;40;20052;-56
2021/06/09 03:52:47;;;;;;;13.63;12.30;;;;;;;18.05;56.60;96340.63;3584761;40;20056;-56
2021/06/09 03:55:20;;;;;;;23.23;15.77;;;;;;;18.85;55.37;96340.50;3583617;39;20047;-56
2021/06/09 03:57:52;;;;;;;14.70;13.15;;;;;;;19.29;50.72;96335.59;3584822;39;20396;-55
2021/06/09 04:00:23;;;;;;;12.15;10.95;;;;;;;19.81;51.89;96344.03;3583794;39;20470;-56
2021/06/09 04:02:51;;;;;;;14.15;12.52;;;;;;;20.38;48.90;96341.81;3584965;39;20041;-55
2021/06/09 04:05:21;;;;;;;13.23;11.85;;;;;;;20.50;47.53;96342.03;3584282;39;22630;-56
2021/06/09 04:07:50;;;;;;;12.68;11.20;;;;;;;20.66;47.10;96338.94;3587011;39;20091;-55
2021/06/09 04:10:19;;;;;;;14.48;11.85;;;;;;;20.59;47.07;96344.75;3568169;40;20158;-56
2021/06/09 04:12:47;;;;;;;13.05;11.82;;;;;;;20.68;47.28;96342.13;3585563;39;20114;-56
2021/06/09 04:15:18;;;;;;;12.65;11.45;;;;;;;20.86;45.69;96340.31;3588520;39;20032;-56
2021/06/09 04:17:50;;;;;;;11.70;10.65;;;;;;;20.95;46.04;96351.06;3580398;39;20056;-56
2021/06/09 04:20:26;;;;;;;13.07;11.95;;;;;;;21.17;45.09;96342.88;3587219;39;20989;-56
2021/06/09 04:22:55;;;;;;;13.48;11.27;;;;;;;21.06;45.27;96341.59;3585718;39;20062;-55
2021/06/09 04:25:24;;;;;;;17.95;12.15;;;;;;;21.18;44.70;96338.28;3576563;39;20051;-55
2021/06/09 04:27:53;;;;;;;12.55;10.80;;;;;;;21.12;44.73;96345.72;3587538;40;20058;-55
2021/06/09 04:30:22;;;;;;;15.50;12.80;;;;;;;21.62;43.75;96346.41;3576462;40;20044;-56
2021/06/09 04:32:54;;;;;;;14.93;11.43;;;;;;;21.58;43.38;96345.44;3586589;39;20056;-55
2021/06/09 04:35:24;;;;;;;13.23;11.75;;;;;;;22.07;43.16;96353.28;3584368;39;21644;-55
2021/06/09 04:37:52;;;;;;;14.27;10.68;;;;;;;22.11;43.58;96344.28;3575873;39;20051;-55
2021/06/09 04:40:25;;;;;;;14.95;12.02;;;;;;;22.29;41.91;96338.84;3587946;39;20051;-55
2021/06/09 04:42:54;;;;;;;13.98;11.43;;;;;;;22.33;42.39;96347.88;3590659;39;20378;-55
2021/06/09 04:45:24;;;;;;;13.70;11.68;;;;;;;22.31;42.46;96342.03;3579364;39;20047;-55
2021/06/09 04:47:52;;;;;;;14.45;11.30;;;;;;;22.10;42.57;96339.22;3581189;40;20055;-56
2021/06/09 04:50:24;;;;;;;16.50;11.48;;;;;;;22.20;42.48;96338.09;3578935;40;20044;-55
2021/06/09 04:52:53;;;;;;;15.05;12.35;;;;;;;22.29;41.54;96341.53;3590385;39;20052;-56
2021/06/09 04:55:21;;;;;;;17.30;9.93;;;;;;;21.95;42.17;96343.22;3576243;39;20586;-59
2021/06/09 04:57:49;;;;;;;11.88;10.82;;;;;;;21.61;42.85;96336.75;3588398;39;20048;-56
2021/06/09 05:00:17;;;;;;;10.90;10.00;;;;;;;21.75;42.18;96339.28;3591173;39;20052;-56
2021/06/09 05:02:45;;;;;;;10.68;9.68;;;;;;;22.09;42.17;96338.44;3578930;40;20060;-56
2021/06/09 05:05:14;;;;;;;11.55;10.65;;;;;;;22.29;41.42;96330.78;3588519;39;20054;-56
2021/06/09 05:07:41;;;;;;;12.32;10.50;;;;;;;22.55;41.11;96329.94;3576467;40;20060;-56
2021/06/09 05:10:12;;;;;;;15.13;10.90;;;;;;;22.53;41.37;96326.78;3589413;39;20066;-56
2021/06/09 05:13:05;;;;;;;12.57;10.77;;;;;;;22.55;41.03;96332.63;3587267;39;20044;-57
2021/06/09 05:15:38;;;;;;;11.27;10.15;;;;;;;22.31;41.84;96323.22;3576236;39;20058;-56
2021/06/09 05:18:09;;;;;;;12.18;11.00;;;;;;;21.49;44.07;96321.28;3572205;39;20058;-57
2021/06/09 05:20:39;;;;;;;14.73;11.15;;;;;;;20.78;45.49;96325.75;3590264;39;20044;-56
2021/06/09 05:23:24;;;;;;;14.48;11.75;;;;;;;20.22;46.29;96326.19;3590326;39;20554;-57
2021/06/09 05:25:54;;;;;;;12.13;10.95;;;;;;;19.76;47.28;96324.59;3589412;39;20085;-56
2021/06/09 05:28:26;;;;;;;13.40;12.23;;;;;;;19.46;49.32;96326.91;3587732;40;20055;-56
2021/06/09 05:30:55;;;;;;;13.63;12.18;;;;;;;19.18;49.31;96327.00;3574185;40;20908;-56
2021/06/09 05:33:24;;;;;;;14.50;11.32;;;;;;;19.04;50.30;96333.16;3591000;39;20060;-56
2021/06/09 05:35:53;;;;;;;20.75;12.80;;;;;;;18.96;49.63;96325.84;3588834;40;20060;-56
2021/06/09 05:38:22;;;;;;;13.30;12.05;;;;;;;18.84;51.93;96317.53;3588570;40;20058;-56
2021/06/09 05:40:51;;;;;;;19.50;13.15;;;;;;;18.75;51.35;96320.91;3588176;39;20050;-56
2021/06/09 05:43:21;;;;;;;22.52;13.55;;;;;;;18.69;52.37;96323.97;3563925;40;20052;-55
2021/06/09 05:45:53;;;;;;;14.15;12.65;;;;;;;18.65;51.56;96325.66;3573012;40;20066;-55
2021/06/09 05:48:20;;;;;;;14.32;11.98;;;;;;;18.66;51.04;96317.34;3586956;39;20755;-56
2021/06/09 05:50:53;;;;;;;15.10;11.63;;;;;;;18.70;51.57;96325.56;3591512;39;20058;-55
2021/06/09 05:53:22;;;;;;;14.27;12.73;;;;;;;18.64;52.54;96311.53;3582578;40;20051;-55
2021/06/09 05:55:50;;;;;;;12.45;11.35;;;;;;;18.73;51.06;96319.59;3590681;39;20319;-55
2021/06/09 05:58:20;;;;;;;14.88;11.75;;;;;;;18.74;52.46;96311.31;3587682;39;20054;-55
2021/06/09 06:01:10;;;;;;;19.40;13.35;;;;;;;18.87;51.62;96316.94;3585755;39;20079;-55
2021/06/09 06:03:39;;;;;;;13.38;11.68;;;;;;;18.87;51.42;96306.25;3587633;39;20062;-55
2021/06/09 06:06:10;;;;;;;14.07;12.13;;;;;;;18.89;51.89;96309.41;3580909;40;20301;-56
2021/06/09 06:08:40;;;;;;;13.13;11.77;;;;;;;19.07;51.07;96318.44;3579639;40;20082;-55
2021/06/09 06:11:13;;;;;;;15.85;11.68;;;;;;;19.28;51.02;96313.41;3591147;40;20059;-55
2021/06/09 06:13:43;;;;;;;12.75;11.45;;;;;;;19.46;50.15;96311.66;3590458;40;20059;-57
2021/06/09 06:16:16;;;;;;;10.57;9.57;;;;;;;19.64;48.87;96312.56;3576960;40;20062;-55
2021/06/09 06:18:46;;;;;;;12.13;10.70;;;;;;;19.71;50.12;96316.72;3592416;39;20069;-55
2021/06/09 06:21:15;;;;;;;11.50;10.40;;;;;;;19.93;49.49;96311.38;3592549;39;20440;-55
2021/06/09 06:23:43;;;;;;;11.80;10.25;;;;;;;20.03;49.61;96312.19;3593165;40;20048;-55
2021/06/09 06:26:15;;;;;;;10.60;9.68;;;;;;;20.13;48.95;96314.59;3575351;40;20311;-56
2021/06/09 06:28:43;;;;;;;9.90;8.60;;;;;;;20.24;50.68;96304.44;3592662;40;20296;-56
2021/06/09 06:31:19;;;;;;;10.57;9.57;;;;;;;20.46;50.10;96314.31;3591405;39;20062;-56
2021/06/09 06:33:47;;;;;;;11.27;9.07;;;;;;;20.57;49.23;96307.56;3593512;40;20388;-56
2021/06/09 06:36:17;;;;;;;11.48;9.40;;;;;;;20.74;48.37;96312.19;3583822;40;20062;-57
2021/06/09 06:38:45;;;;;;;11.77;10.02;;;;;;;20.90;47.90;96314.44;3593451;40;20058;-56
2021/06/09 06:41:14;;;;;;;14.75;10.07;;;;;;;21.08;47.81;96306.41;3592461;39;20044;-56
2021/06/09 06:43:43;;;;;;;9.73;8.68;;;;;;;21.24;47.98;96302.19;3592834;40;20299;-56
2021/06/09 06:46:13;;;;;;;11.50;10.18;;;;;;;21.29;47.85;96320.00;3592734;40;20047;-56
2021/06/09 06:48:42;;;;;;;12.07;9.85;;;;;;;21.41;47.25;96306.75;3583609;40;20048;-57
2021/06/09 06:51:11;;;;;;;10.02;9.00;;;;;;;21.43;48.30;96307.22;3593163;40;20056;-57
2021/06/09 06:53:47;;;;;;;10.75;9.73;;;;;;;21.51;46.62;96308.34;3591071;39;20055;-56
2021/06/09 06:56:17;;;;;;;10.88;9.32;;;;;;;21.59;46.55;96304.06;3581318;39;20058;-56
2021/06/09 06:58:51;;;;;;;11.43;10.32;;;;;;;21.77;46.95;96315.59;3593138;40;20044;-56
2021/06/09 07:01:27;;;;;;;10.27;8.75;;;;;;;21.81;46.59;96301.22;3589056;40;20052;-56
2021/06/09 07:03:56;;;;;;;12.52;10.13;;;;;;;21.96;47.21;96301.81;3588344;39;20081;-57
2021/06/09 07:06:24;;;;;;;10.52;8.57;;;;;;;21.93;46.63;96291.72;3592049;39;20044;-57
2021/06/09 07:09:02;;;;;;;9.50;8.70;;;;;;;21.98;47.04;96296.91;3592043;39;20056;-55
2021/06/09 07:11:32;;;;;;;10.50;8.70;;;;;;;21.94;46.65;96294.06;3591002;39;20055;-55
2021/06/09 07:14:01;;;;;;;9.48;8.57;;;;;;;22.11;46.26;96293.22;3582775;40;20040;-56
2021/06/09 07:16:30;;;;;;;10.45;6.93;;;;;;;22.32;44.20;96292.53;3591606;40;20052;-55
2021/06/09 07:18:59;;;;;;;9.98;6.53;;;;;;;22.37;43.33;96289.66;3592723;40;20062;-56
2021/06/09 07:21:27;;;;;;;8.68;6.20;;;;;;;22.39;44.64;96292.81;3581627;40;20086;-55
2021/06/09 07:23:55;;;;;;;7.93;7.20;;;;;;;22.48;44.30;96292.00;3592380;40;20051;-55
2021/06/09 07:26:23;;;;;;;8.93;6.00;;;;;;;22.48;41.96;96281.25;3592205;39;20052;-55
2021/06/09 07:28:55;;;;;;;9.30;5.85;;;;;;;22.26;43.44;96277.69;3592879;40;20056;-56
2021/06/09 07:31:29;;;;;;;6.53;5.85;;;;;;;22.04;43.05;96298.31;3579031;40;20047;-55
2021/06/09 07:33:57;;;;;;;6.88;5.07;;;;;;;22.16;42.89;96296.84;3592152;40;20055;-55
2021/06/09 07:36:39;;;;;;;12.20;6.57;;;;;;;21.99;42.67;96281.59;3574352;40;20044;-55
2021/06/09 07:39:33;;;;;;;9.20;6.38;;;;;;;21.78;43.77;96293.78;3582592;40;20423;-55
2021/06/09 07:42:06;;;;;;;10.73;6.85;;;;;;;22.07;42.46;96286.94;3586082;39;20047;-55
2021/06/09 07:44:38;;;;;;;6.55;5.90;;;;;;;22.10;41.91;96302.41;3582875;40;20060;-55
2021/06/09 07:47:09;;;;;;;9.15;6.32;;;;;;;22.07;42.82;96281.56;3584929;40;20071;-55
2021/06/09 07:49:38;;;;;;;10.43;5.82;;;;;;;22.09;41.48;96290.06;3591239;39;20442;-56
2021/06/09 07:52:08;;;;;;;7.65;6.35;;;;;;;22.08;41.16;96291.19;3577895;40;20058;-55
2021/06/09 07:54:36;;;;;;;6.70;5.95;;;;;;;22.24;42.28;96286.09;3592733;39;20044;-55
2021/06/09 07:57:06;;;;;;;8.27;5.85;;;;;;;22.44;41.90;96288.41;3591530;39;20102;-55
2021/06/09 07:59:34;;;;;;;10.05;5.78;;;;;;;22.59;41.74;96298.59;3593096;40;20063;-55
2021/06/09 08:02:02;;;;;;;8.05;6.72;;;;;;;22.75;40.13;96292.66;3593184;40;20044;-55
2021/06/09 08:04:31;;;;;;;7.63;5.70;;;;;;;22.85;39.90;96300.34;3593716;39;20110;-55
2021/06/09 08:06:59;;;;;;;9.93;5.80;;;;;;;23.21;40.04;96309.78;3593138;40;20405;-55
2021/06/09 08:09:26;;;;;;;6.85;5.38;;;;;;;23.21;40.27;96300.94;3589426;40;20051;-55
2021/06/09 08:11:54;;;;;;;9.30;5.93;;;;;;;23.26;40.14;96300.75;3592172;40;20040;-55
2021/06/09 08:14:22;;;;;;;7.55;6.00;;;;;;;23.20;39.01;96310.91;3583054;39;20064;-55
2021/06/09 08:16:50;;;;;;;6.32;5.82;;;;;;;23.29;38.10;96300.88;3590307;39;20083;-55
2021/06/09 08:19:17;;;;;;;5.85;5.28;;;;;;;22.86;38.40;96296.53;3583730;40;20044;-55
2021/06/09 08:21:46;;;;;;;7.70;5.40;;;;;;;22.66;39.46;96290.81;3593536;40;20054;-57
2021/06/09 08:24:13;;;;;;;5.72;5.18;;;;;;;22.73;38.42;96304.53;3594040;39;20059;-55
2021/06/09 08:26:42;;;;;;;6.40;5.72;;;;;;;23.00;37.70;96297.09;3592951;40;20051;-55
2021/06/09 08:29:11;;;;;;;11.23;5.22;;;;;;;23.00;38.33;96291.72;3591938;40;20062;-55
2021/06/09 08:31:38;;;;;;;6.65;4.93;;;;;;;;;;3591228;40;20054;-55
2021/06/09 08:34:08;;;;;;;8.38;5.30;;;;;;;23.12;37.77;96303.66;3564841;40;20043;-55
2021/06/09 08:36:39;;;;;;;5.35;4.95;;;;;;;23.07;37.40;96307.34;3584169;39;20128;-56
2021/06/09 08:39:07;;;;;;;12.60;5.38;;;;;;;23.10;38.13;96292.44;3593025;39;20358;-55
2021/06/09 08:41:36;;;;;;;6.03;5.40;;;;;;;23.06;38.11;96296.91;3580367;39;20555;-56
2021/06/09 08:44:05;;;;;;;7.13;5.38;;;;;;;23.07;38.75;96301.19;3588712;39;20044;-55
2021/06/09 08:46:34;;;;;;;6.57;5.78;;;;;;;22.91;38.33;96301.75;3583448;39;20058;-58
2021/06/09 08:49:04;;;;;;;6.72;5.57;;;;;;;22.86;39.11;96312.69;3570871;39;20315;-56
2021/06/09 08:51:35;;;;;;;6.07;5.07;;;;;;;22.86;39.08;96301.94;3577995;39;20051;-58
2021/06/09 08:54:07;;;;;;;5.80;4.88;;;;;;;22.99;39.24;96303.59;3570495;39;20040;-56
2021/06/09 08:56:37;;;;;;;6.00;5.07;;;;;;;22.86;38.29;96301.94;3572879;39;20062;-56
2021/06/09 08:59:07;;;;;;;5.47;4.90;;;;;;;22.83;37.45;96297.22;3572614;39;20063;-57
2021/06/09 09:01:34;;;;;;;5.20;4.63;;;;;;;23.13;38.46;96297.97;3569440;39;20058;-61
2021/06/09 09:04:03;;;;;;;6.18;5.53;;;;;;;23.27;38.39;96305.78;3591153;39;20081;-56
2021/06/09 09:06:31;;;;;;;5.68;5.18;;;;;;;23.45;38.43;96305.63;3577052;40;20044;-58
2021/06/09 09:09:00;;;;;;;6.93;5.63;;;;;;;23.47;37.62;96300.72;3582068;39;20043;-58
2021/06/09 09:11:27;;;;;;;5.88;4.68;;;;;;;23.60;37.31;96299.66;3582051;40;20058;-58
2021/06/09 09:13:55;;;;;;;6.90;5.25;;;;;;;23.83;37.50;96306.59;3572218;40;20060;-56
2021/06/09 09:16:23;;;;;;;8.50;4.78;;;;;;;23.93;37.46;96301.56;3592712;39;20037;-62
2021/06/09 09:19:01;;;;;;;5.40;4.90;;;;;;;23.83;37.61;96311.97;3589858;40;20615;-58
2021/06/09 09:21:39;;;;;;;6.05;5.43;;;;;;;23.60;37.79;96307.72;3580932;39;20048;-58
2021/06/09 09:24:44;;;;;;;6.60;4.90;;;;;;;23.40;38.22;96316.63;3592549;39;20679;-59
2021/06/09 09:27:27;;;;;;;5.80;5.10;;;;;;;23.30;38.97;96317.81;3590561;39;20044;-57
2021/06/09 09:30:22;;;;;;;5.72;4.85;;;;;;;23.24;37.21;96306.44;3573592;39;20060;-56
2021/06/09 09:32:57;;;;;;;;;;;;;;;23.32;37.33;96310.97;3592180;39;20051;-56
2021/06/09 09:35:29;;;;;;;5.40;4.88;;;;;;;23.46;37.35;96304.53;3593630;39;19950;-59
2021/06/09 09:38:14;;;;;;;5.00;4.50;;;;;;;23.64;36.74;96305.97;3575957;39;20040;-55
2021/06/09 09:41:12;;;;;;;5.93;5.17;;;;;;;23.97;35.03;96303.59;3591767;39;20054;-55
2021/06/09 09:43:54;;;;;;;5.38;4.47;;;;;;;24.18;34.74;96296.25;3593579;40;20274;-55
2021/06/09 09:46:32;;;;;;;5.55;4.60;;;;;;;24.35;34.42;96289.88;3582428;40;20393;-55
2021/06/09 09:49:09;;;;;;;4.70;4.30;;;;;;;24.67;34.59;96292.78;3583341;40;20098;-55
2021/06/09 09:51:44;;;;;;;5.30;4.53;;;;;;;24.66;34.69;96293.91;3588387;39;20132;-56
2021/06/09 09:54:13;;;;;;;5.38;4.90;;;;;;;24.66;34.75;96293.13;3583170;39;20050;-56
2021/06/09 09:56:42;;;;;;;5.07;4.57;;;;;;;24.90;35.09;96276.16;3574851;39;20052;-55
2021/06/09 09:59:11;;;;;;;6.43;4.00;;;;;;;25.21;34.70;96284.72;3589519;39;20661;-55
2021/06/09 10:01:43;;;;;;;4.57;4.18;;;;;;;25.42;33.67;96274.56;3571338;40;20066;-55
2021/06/09 10:04:18;;;;;;;7.38;4.90;;;;;;;25.41;33.90;96283.00;3592510;40;20055;-55
2021/06/09 10:06:50;;;;;;;5.70;5.13;;;;;;;25.31;33.60;96281.53;3575551;40;20386;-55
2021/06/09 10:09:19;;;;;;;4.63;4.22;;;;;;;24.90;35.30;96276.16;3591197;40;20054;-58
2021/06/09 10:11:53;;;;;;;5.78;5.00;;;;;;;24.81;35.29;96278.19;3590800;39;20064;-56
2021/06/09 10:14:30;;;;;;;6.07;4.95;;;;;;;24.57;36.02;96280.53;3580302;40;20060;-57
2021/06/09 10:17:02;;;;;;;5.60;4.45;;;;;;;24.47;36.04;96280.97;3589704;39;20048;-56
2021/06/09 10:19:33;;;;;;;5.95;4.78;;;;;;;24.21;34.80;96287.47;3593975;39;20391;-55
2021/06/09 10:22:04;;;;;;;5.20;4.47;;;;;;;24.12;35.12;96280.63;3592492;39;20051;-55
2021/06/09 10:24:49;;;;;;;5.10;4.60;;;;;;;24.20;35.22;96277.03;3582680;40;20064;-57
2021/06/09 10:27:18;;;;;;;6.68;4.40;;;;;;;24.36;35.70;96279.88;3592627;39;20058;-57
2021/06/09 10:29:46;;;;;;;8.05;4.28;;;;;;;24.17;35.62;96283.09;3585272;39;20122;-55
2021/06/09 10:32:18;;;;;;;8.10;4.70;;;;;;;24.07;36.15;96273.53;3590703;39;20036;-56
2021/06/09 10:34:46;;;;;;;5.22;4.47;;;;;;;23.78;36.17;96280.66;3592930;39;20040;-56
2021/06/09 10:37:15;;;;;;;4.65;4.25;;;;;;;23.68;36.58;96281.84;3593835;40;20059;-55
2021/06/09 10:39:43;;;;;;;7.93;5.13;;;;;;;23.91;36.66;96270.66;3585357;40;20066;-56
2021/06/09 10:42:14;;;;;;;5.32;4.60;;;;;;;24.21;36.54;96267.84;3582889;40;20306;-56
2021/06/09 10:44:46;;;;;;;6.25;4.50;;;;;;;24.62;35.20;96267.94;3577614;40;20044;-56
2021/06/09 10:47:19;;;;;;;4.75;4.28;;;;;;;24.96;34.54;96257.81;3598354;39;20054;-56
2021/06/09 10:49:48;;;;;;;5.15;4.65;;;;;;;25.23;34.56;96260.88;3577355;40;20059;-55
2021/06/09 10:52:16;;;;;;;4.63;4.32;;;;;;;25.36;34.44;96262.41;3593372;39;20048;-55
2021/06/09 10:54:45;;;;;;;9.20;3.88;;;;;;;25.24;34.14;96257.06;3590462;39;20071;-55
2021/06/09 10:57:14;;;;;;;6.30;4.82;;;;;;;25.11;34.29;96259.78;3583130;39;20055;-55
2021/06/09 10:59:42;;;;;;;3.95;3.65;;;;;;;24.90;34.14;96256.47;3579195;40;20048;-55
2021/06/09 11:02:16;;;;;;;5.55;4.93;;;;;;;24.65;34.79;96251.88;3589582;39;20040;-56
2021/06/09 11:04:50;;;;;;;4.65;4.25;;;;;;;24.30;34.96;96248.88;3590893;39;20036;-55
2021/06/09 11:07:30;;;;;;;6.40;4.72;;;;;;;24.13;35.96;96255.22;3592967;39;20316;-57
2021/06/09 11:10:00;;;;;;;5.32;4.82;;;;;;;24.08;35.68;96248.16;3582896;39;20052;-57
2021/06/09 11:12:30;;;;;;;5.05;4.55;;;;;;;24.03;35.80;96245.69;3590053;39;20178;-57
2021/06/09 11:15:08;;;;;;;5.47;4.30;;;;;;;24.01;35.57;96248.72;3591896;39;20066;-56
2021/06/09 11:17:46;;;;;;;4.65;4.03;;;;;;;24.00;35.26;96236.34;3571946;40;20040;-57
2021/06/09 11:20:18;;;;;;;5.75;5.07;;;;;;;24.41;34.53;96236.50;3575547;39;20039;-57
2021/06/09 11:23:24;;;;;;;4.57;4.28;;;;;;;24.86;34.45;96227.47;3589382;39;20054;-56
2021/06/09 11:25:52;;;;;;;5.20;4.32;;;;;;;25.15;33.53;96233.69;3588772;39;20050;-57
2021/06/09 11:28:33;;;;;;;5.88;4.18;;;;;;;25.02;33.40;96232.94;3591844;40;20058;-57
2021/06/09 11:31:09;;;;;;;5.10;4.20;;;;;;;24.64;32.67;96223.31;3587879;39;20048;-56
2021/06/09 11:33:42;;;;;;;7.28;4.75;;;;;;;24.27;32.20;96231.44;3588952;40;20304;-57
2021/06/09 11:36:19;;;;;;;6.53;4.43;;;;;;;24.17;32.95;96221.13;3592094;39;20050;-58
2021/06/09 11:38:47;;;;;;;4.07;3.53;;;;;;;24.14;32.19;96227.97;3590876;39;20124;-57
2021/06/09 11:41:22;;;;;;;6.60;3.95;;;;;;;24.36;32.25;96232.13;3593291;39;20082;-57
2021/06/09 11:43:55;;;;;;;4.88;3.40;;;;;;;24.70;31.97;96232.78;3590541;39;20106;-57
2021/06/09 11:46:49;;;;;;;4.22;3.40;;;;;;;-146.28;100.00;62448.88;3591272;39;20040;-57